createdAt,value
2023-03-17T00:01:54.175Z,73.13
2023-03-17T00:04:21.726Z,73.52
2023-03-17T00:06:48.729Z,73.60
2023-03-17T00:09:17.416Z,73.52
2023-03-17T00:11:44.668Z,74.05
2023-03-17T00:14:11.208Z,73.74
2023-03-17T00:16:39.091Z,73.87
2023-03-17T00:19:05.571Z,73.71
2023-03-17T00:21:33.092Z,73.90
2023-03-17T00:24:00.354Z,74.02
2023-03-17T00:26:27.684Z,73.96
2023-03-17T00:28:55.099Z,73.79
2023-03-17T00:31:23.553Z,74.07
2023-03-17T00:33:52.282Z,74.15
2023-03-17T00:36:20.264Z,74.07
2023-03-17T00:38:47.113Z,73.88
2023-03-17T00:41:13.618Z,73.90
2023-03-17T00:43:41.060Z,73.70
2023-03-17T00:46:14.921Z,73.95
2023-03-17T00:48:43.497Z,73.89
2023-03-17T00:51:11.417Z,74.17
2023-03-17T00:53:38.247Z,74.12
2023-03-17T00:56:06.485Z,73.96
2023-03-17T00:58:34.017Z,74.43
2023-03-17T01:01:01.029Z,74.37
2023-03-17T01:03:28.062Z,74.72
2023-03-17T01:05:56.981Z,74.22
2023-03-17T01:08:24.028Z,74.16
2023-03-17T01:10:50.490Z,74.58
2023-03-17T01:13:17.014Z,74.28
2023-03-17T01:15:45.529Z,74.05
2023-03-17T01:18:13.261Z,73.77
2023-03-17T01:20:40.772Z,73.84
2023-03-17T01:23:07.238Z,73.92
2023-03-17T01:25:33.812Z,73.89
2023-03-17T01:28:00.316Z,73.89
2023-03-17T01:30:27.562Z,73.86
2023-03-17T01:32:55.669Z,73.99
2023-03-17T01:35:23.034Z,74.23
2023-03-17T01:37:50.592Z,74.04
2023-03-17T01:40:19.598Z,74.10
2023-03-17T01:42:54.270Z,74.27
2023-03-17T01:45:47.233Z,74.30
2023-03-17T01:48:13.726Z,74.33
2023-03-17T01:50:41.137Z,74.09
2023-03-17T01:53:07.617Z,74.45
2023-03-17T01:55:34.483Z,74.37
2023-03-17T01:58:01.220Z,74.39
2023-03-17T02:00:27.732Z,74.61
2023-03-17T02:02:56.226Z,74.70
2023-03-17T02:05:27.073Z,74.82
2023-03-17T02:07:54.498Z,75.00
2023-03-17T02:10:22.168Z,75.12
2023-03-17T02:12:50.996Z,74.95
2023-03-17T02:15:17.477Z,75.28
2023-03-17T02:17:43.985Z,75.26
2023-03-17T02:20:17.212Z,75.32
2023-03-17T02:22:53.865Z,74.78
2023-03-17T02:25:21.567Z,74.85
2023-03-17T02:27:50.305Z,74.88
2023-03-17T02:30:19.188Z,75.10
2023-03-17T02:32:45.878Z,74.79
2023-03-17T02:35:13.035Z,74.79
2023-03-17T02:37:39.916Z,74.77
2023-03-17T02:40:06.929Z,74.65
2023-03-17T02:42:34.142Z,74.98
2023-03-17T02:45:00.604Z,74.91
2023-03-17T02:47:27.718Z,74.96
2023-03-17T02:49:54.239Z,74.85
2023-03-17T02:52:20.888Z,74.82
2023-03-17T02:54:47.348Z,74.93
2023-03-17T02:57:13.786Z,74.79
2023-03-17T02:59:40.417Z,74.92
2023-03-17T03:02:06.912Z,74.75
2023-03-17T03:04:33.419Z,74.73
2023-03-17T03:07:00.438Z,74.88
2023-03-17T03:09:27.352Z,74.91
2023-03-17T03:11:53.833Z,74.70
2023-03-17T03:14:20.303Z,75.02
2023-03-17T03:16:46.961Z,74.71
2023-03-17T03:19:13.420Z,74.52
2023-03-17T03:21:39.976Z,74.49
2023-03-17T03:24:06.595Z,74.56
2023-03-17T03:26:33.045Z,74.20
2023-03-17T03:29:00.366Z,74.33
2023-03-17T03:31:27.251Z,74.42
2023-03-17T03:33:54.090Z,74.70
2023-03-17T03:36:20.653Z,73.91
2023-03-17T03:38:47.281Z,73.93
2023-03-17T03:41:14.286Z,73.86
2023-03-17T03:43:41.425Z,74.21
2023-03-17T03:46:08.078Z,74.29
2023-03-17T03:48:34.734Z,74.17
2023-03-17T03:51:02.048Z,74.39
2023-03-17T03:53:29.151Z,74.05
2023-03-17T03:55:56.120Z,73.95
2023-03-17T03:58:22.596Z,74.35
2023-03-17T04:00:49.122Z,74.60
2023-03-17T04:03:16.056Z,74.11
2023-03-17T04:05:42.886Z,73.83
2023-03-17T04:08:09.405Z,73.84
2023-03-17T04:10:35.922Z,74.40
2023-03-17T04:13:02.351Z,74.19
2023-03-17T04:15:28.839Z,74.11
2023-03-17T04:17:55.667Z,74.07
2023-03-17T04:20:22.264Z,74.49
2023-03-17T04:22:48.752Z,74.30
2023-03-17T04:25:15.590Z,74.71
2023-03-17T04:27:42.484Z,74.37
2023-03-17T04:30:10.691Z,74.33
2023-03-17T04:32:37.304Z,74.30
2023-03-17T04:35:03.920Z,74.20
2023-03-17T04:37:32.301Z,74.33
2023-03-17T04:39:59.883Z,74.66
2023-03-17T04:42:26.628Z,74.53
2023-03-17T04:44:53.079Z,74.96
2023-03-17T04:47:19.511Z,74.41
2023-03-17T04:49:46.175Z,74.44
2023-03-17T04:52:12.743Z,74.46
2023-03-17T04:54:39.263Z,74.57
2023-03-17T04:57:06.018Z,75.10
2023-03-17T04:59:32.497Z,75.71
2023-03-17T05:01:58.968Z,75.63
2023-03-17T05:04:31.649Z,76.12
2023-03-17T05:06:58.713Z,76.08
2023-03-17T05:09:25.613Z,75.62
2023-03-17T05:11:52.223Z,75.27
2023-03-17T05:14:18.688Z,74.99
2023-03-17T05:16:47.484Z,75.20
2023-03-17T05:19:13.981Z,75.09
2023-03-17T05:21:40.777Z,75.50
2023-03-17T05:24:07.264Z,75.91
2023-03-17T05:26:33.726Z,75.41
2023-03-17T05:29:00.307Z,75.31
2023-03-17T05:31:26.795Z,75.51
2023-03-17T05:33:53.609Z,75.41
2023-03-17T05:36:21.209Z,75.19
2023-03-17T05:38:47.647Z,75.25
2023-03-17T05:41:14.107Z,75.40
2023-03-17T05:43:41.322Z,75.55
2023-03-17T05:46:08.277Z,76.13
2023-03-17T05:48:34.927Z,76.50
2023-03-17T05:51:01.776Z,75.95
2023-03-17T05:53:28.660Z,75.98
2023-03-17T05:55:55.271Z,76.17
2023-03-17T05:58:22.143Z,76.19
2023-03-17T06:00:48.604Z,76.00
2023-03-17T06:03:15.202Z,76.11
2023-03-17T06:05:41.941Z,76.22
2023-03-17T06:08:08.579Z,76.57
2023-03-17T06:10:35.279Z,76.98
2023-03-17T06:13:03.887Z,76.82
2023-03-17T06:15:31.241Z,76.95
2023-03-17T06:17:57.907Z,77.20
2023-03-17T06:20:24.367Z,77.36
2023-03-17T06:23:03.414Z,77.17
2023-03-17T06:25:31.163Z,77.17
2023-03-17T06:27:57.894Z,77.28
2023-03-17T06:30:24.496Z,77.44
2023-03-17T06:32:50.989Z,77.88
2023-03-17T06:35:18.157Z,77.85
2023-03-17T06:37:44.626Z,77.81
2023-03-17T06:40:12.643Z,78.24
2023-03-17T06:42:39.085Z,78.64
2023-03-17T06:45:05.855Z,78.42
2023-03-17T06:47:32.316Z,78.74
2023-03-17T06:49:58.735Z,78.93
2023-03-17T06:52:25.386Z,79.34
2023-03-17T06:54:51.991Z,79.88
2023-03-17T06:57:18.483Z,80.13
2023-03-17T06:59:45.846Z,80.10
2023-03-17T07:02:12.780Z,80.12
2023-03-17T07:04:39.549Z,80.55
2023-03-17T07:07:06.371Z,80.84
2023-03-17T07:09:34.363Z,80.92
2023-03-17T07:12:05.168Z,80.65
2023-03-17T07:14:32.870Z,81.29
2023-03-17T07:17:00.003Z,81.17
2023-03-17T07:19:27.322Z,81.25
2023-03-17T07:21:55.866Z,81.79
2023-03-17T07:24:22.708Z,81.29
2023-03-17T07:26:49.354Z,82.66
2023-03-17T07:29:16.574Z,84.20
2023-03-17T07:31:44.107Z,84.26
2023-03-17T07:34:11.317Z,83.99
2023-03-17T07:36:37.779Z,83.81
2023-03-17T07:39:04.455Z,83.49
2023-03-17T07:41:30.927Z,84.54
2023-03-17T07:43:57.488Z,84.78
2023-03-17T07:46:24.217Z,84.44
2023-03-17T07:48:51.091Z,84.74
2023-03-17T07:51:19.145Z,84.13
2023-03-17T07:53:46.463Z,84.69
2023-03-17T07:56:13.265Z,84.60
2023-03-17T07:58:40.364Z,84.62
2023-03-17T08:01:06.941Z,82.65
2023-03-17T08:03:34.066Z,81.86
2023-03-17T08:06:00.827Z,82.66
2023-03-17T08:08:29.611Z,81.46
2023-03-17T08:11:03.626Z,80.99
2023-03-17T08:13:30.725Z,80.92
2023-03-17T08:15:57.506Z,80.99
2023-03-17T08:18:24.077Z,80.16
2023-03-17T08:20:51.430Z,78.68
2023-03-17T08:23:20.709Z,78.81
2023-03-17T08:25:47.837Z,78.78
2023-03-17T08:28:15.434Z,79.22
2023-03-17T08:30:42.985Z,79.64
2023-03-17T08:33:09.904Z,79.01
2023-03-17T08:35:37.400Z,73.39
2023-03-17T08:38:04.189Z,72.77
2023-03-17T08:40:31.498Z,71.48
2023-03-17T08:42:58.238Z,68.11
2023-03-17T08:45:24.871Z,70.49
2023-03-17T08:47:51.322Z,69.24
2023-03-17T08:50:20.137Z,65.44
2023-03-17T08:52:46.940Z,63.90
2023-03-17T08:55:14.529Z,59.96
2023-03-17T08:57:41.102Z,61.73
2023-03-17T09:00:11.057Z,59.84
2023-03-17T09:02:43.160Z,62.19
2023-03-17T09:05:11.536Z,63.10
2023-03-17T09:07:38.410Z,61.53
2023-03-17T09:10:05.792Z,62.44
2023-03-17T09:12:34.145Z,63.71
2023-03-17T09:15:00.851Z,58.27
2023-03-17T09:17:27.344Z,60.90
2023-03-17T09:19:53.821Z,59.22
2023-03-17T09:22:20.382Z,59.12
2023-03-17T09:24:46.856Z,57.17
2023-03-17T09:27:13.600Z,58.63
2023-03-17T09:29:41.251Z,54.56
2023-03-17T09:32:08.714Z,56.78
2023-03-17T09:34:35.867Z,57.10
2023-03-17T09:37:02.320Z,57.65
2023-03-17T09:39:28.828Z,56.53
2023-03-17T09:41:57.111Z,57.04
2023-03-17T09:44:42.441Z,54.16
2023-03-17T09:47:18.187Z,53.19
2023-03-17T09:49:49.375Z,55.42
2023-03-17T09:52:18.649Z,54.53
2023-03-17T09:54:46.780Z,52.38
2023-03-17T09:57:18.266Z,51.04
2023-03-17T09:59:55.111Z,53.71
2023-03-17T10:02:29.835Z,52.62
2023-03-17T10:04:57.322Z,49.81
2023-03-17T10:07:30.573Z,51.96
2023-03-17T10:10:00.670Z,50.86
2023-03-17T10:12:27.208Z,49.49
2023-03-17T10:14:55.965Z,49.29
2023-03-17T10:17:31.641Z,48.64
2023-03-17T10:20:00.676Z,51.36
2023-03-17T10:22:42.651Z,50.69
2023-03-17T10:25:15.245Z,51.66
2023-03-17T10:27:42.913Z,50.72
2023-03-17T10:30:17.259Z,50.32
2023-03-17T10:32:44.580Z,49.87
2023-03-17T10:35:11.543Z,46.74
2023-03-17T10:37:38.130Z,46.76
2023-03-17T10:40:10.161Z,47.59
2023-03-17T10:42:45.995Z,48.29
2023-03-17T10:45:15.507Z,44.67
2023-03-17T10:47:47.218Z,46.58
2023-03-17T10:50:20.461Z,46.29
2023-03-17T10:52:47.510Z,46.20
2023-03-17T10:55:20.267Z,46.96
2023-03-17T10:57:51.261Z,46.31
2023-03-17T11:00:20.094Z,46.46
2023-03-17T11:02:57.901Z,46.39
2023-03-17T11:05:26.654Z,45.14
2023-03-17T11:08:06.628Z,45.29
2023-03-17T11:10:36.457Z,45.99
2023-03-17T11:13:03.040Z,45.85
2023-03-17T11:15:32.505Z,45.21
2023-03-17T11:18:01.165Z,46.09
2023-03-17T11:20:33.426Z,44.95
2023-03-17T11:22:59.859Z,45.91
2023-03-17T11:25:27.286Z,46.58
2023-03-17T11:28:16.406Z,45.80
2023-03-17T11:30:42.833Z,47.29
2023-03-17T11:33:18.132Z,46.46
2023-03-17T11:35:44.608Z,44.88
2023-03-17T11:38:21.036Z,45.40
2023-03-17T11:40:59.693Z,46.58
2023-03-17T11:43:35.483Z,45.62
2023-03-17T11:46:11.163Z,44.98
2023-03-17T11:48:40.717Z,44.85
2023-03-17T11:51:13.448Z,44.94
2023-03-17T11:53:58.494Z,44.73
2023-03-17T11:56:37.264Z,46.87
2023-03-17T11:59:05.382Z,47.16
2023-03-17T12:02:04.783Z,46.00
2023-03-17T12:04:34.476Z,43.88
2023-03-17T12:07:08.892Z,45.07
2023-03-17T12:09:41.109Z,43.81
2023-03-17T12:12:10.110Z,43.75
2023-03-17T12:14:42.789Z,42.40
2023-03-17T12:17:12.692Z,43.78
2023-03-17T12:19:54.401Z,43.87
2023-03-17T12:22:21.287Z,43.29
2023-03-17T12:24:51.432Z,42.43
2023-03-17T12:27:29.317Z,42.86
2023-03-17T12:29:59.028Z,42.01
2023-03-17T12:32:39.536Z,42.57
2023-03-17T12:35:23.938Z,42.56
2023-03-17T12:37:50.423Z,41.23
2023-03-17T12:40:20.296Z,42.27
2023-03-17T12:43:12.934Z,42.45
2023-03-17T12:45:58.315Z,43.18
2023-03-17T12:48:43.344Z,42.13
2023-03-17T12:51:28.330Z,41.93
2023-03-17T12:53:55.287Z,41.10
2023-03-17T12:56:29.771Z,40.36
2023-03-17T12:59:02.889Z,41.93
2023-03-17T13:01:32.531Z,41.88
2023-03-17T13:04:04.964Z,41.15
2023-03-17T13:06:34.801Z,39.52
2023-03-17T13:09:21.714Z,40.47
2023-03-17T13:11:48.594Z,41.21
2023-03-17T13:14:27.145Z,42.82
2023-03-17T13:17:04.786Z,41.64
2023-03-17T13:19:32.544Z,40.87
2023-03-17T13:22:05.630Z,40.58
2023-03-17T13:24:40.247Z,40.45
2023-03-17T13:27:10.264Z,41.78
2023-03-17T13:29:36.854Z,40.56
2023-03-17T13:32:15.508Z,40.02
2023-03-17T13:34:46.377Z,40.81
2023-03-17T13:37:37.899Z,39.99
2023-03-17T13:40:13.594Z,39.95
2023-03-17T13:42:54.149Z,40.23
2023-03-17T13:45:35.871Z,40.00
2023-03-17T13:48:20.926Z,40.95
2023-03-17T13:50:47.516Z,39.95
2023-03-17T13:53:14.879Z,40.37
2023-03-17T13:55:42.374Z,40.42
2023-03-17T13:58:11.349Z,39.50
2023-03-17T14:00:46.863Z,41.46
2023-03-17T14:03:17.685Z,40.65
2023-03-17T14:05:48.042Z,41.63
2023-03-17T14:08:18.462Z,40.30
2023-03-17T14:10:52.494Z,39.99
2023-03-17T14:13:24.382Z,40.50
2023-03-17T14:15:56.517Z,41.21
2023-03-17T14:18:30.770Z,41.95
2023-03-17T14:20:58.841Z,41.19
2023-03-17T14:23:25.808Z,41.38
2023-03-17T14:25:55.239Z,41.94
2023-03-17T14:28:25.694Z,42.39
2023-03-17T14:30:53.931Z,41.47
2023-03-17T14:33:22.501Z,42.02
2023-03-17T14:35:50.995Z,41.71
2023-03-17T14:38:19.977Z,42.09
2023-03-17T14:40:46.822Z,41.42
2023-03-17T14:43:13.787Z,41.99
2023-03-17T14:45:40.272Z,41.30
2023-03-17T14:48:09.572Z,42.17
2023-03-17T14:50:36.080Z,42.51
2023-03-17T14:53:02.636Z,42.99
2023-03-17T14:55:43.092Z,42.55
2023-03-17T14:58:17.840Z,42.05
2023-03-17T15:00:46.642Z,41.96
2023-03-17T15:03:20.619Z,42.54
2023-03-17T15:05:47.537Z,42.29
2023-03-17T15:08:37.917Z,41.07
2023-03-17T15:11:05.334Z,42.40
2023-03-17T15:13:38.007Z,42.06
2023-03-17T15:16:15.172Z,41.80
2023-03-17T15:18:41.739Z,42.97
2023-03-17T15:21:31.628Z,42.94
2023-03-17T15:23:58.064Z,43.09
2023-03-17T15:26:31.239Z,42.55
2023-03-17T15:28:58.700Z,42.95
2023-03-17T15:31:29.407Z,43.25
2023-03-17T15:33:56.821Z,42.47
2023-03-17T15:36:32.324Z,42.00
2023-03-17T15:38:59.437Z,43.27
2023-03-17T15:41:26.160Z,43.51
2023-03-17T15:43:53.696Z,44.04
2023-03-17T15:46:27.643Z,43.63
2023-03-17T15:48:54.224Z,43.55
2023-03-17T15:51:20.951Z,44.10
2023-03-17T15:53:47.447Z,44.64
2023-03-17T15:56:19.093Z,44.71
2023-03-17T15:58:49.357Z,44.42
2023-03-17T16:01:16.564Z,44.81
2023-03-17T16:03:45.467Z,44.76
2023-03-17T16:06:15.616Z,44.47
2023-03-17T16:08:42.143Z,44.44
2023-03-17T16:11:19.265Z,45.18
2023-03-17T16:13:46.995Z,45.32
2023-03-17T16:16:21.521Z,46.42
2023-03-17T16:18:49.052Z,46.55
2023-03-17T16:21:17.090Z,47.11
2023-03-17T16:23:43.799Z,46.93
2023-03-17T16:26:15.962Z,47.30
2023-03-17T16:28:44.622Z,47.73
2023-03-17T16:31:19.320Z,47.33
2023-03-17T16:33:46.317Z,48.55
2023-03-17T16:36:14.387Z,47.75
2023-03-17T16:38:40.943Z,48.54
2023-03-17T16:41:09.234Z,48.87
2023-03-17T16:43:37.895Z,48.60
2023-03-17T16:46:05.722Z,48.94
2023-03-17T16:48:32.311Z,49.40
2023-03-17T16:50:58.945Z,48.93
2023-03-17T16:53:25.690Z,49.28
2023-03-17T16:55:53.509Z,49.66
2023-03-17T16:58:19.979Z,50.69
2023-03-17T17:00:47.561Z,50.95
2023-03-17T17:03:14.544Z,50.72
2023-03-17T17:05:41.568Z,51.31
2023-03-17T17:08:08.435Z,50.96
2023-03-17T17:10:35.585Z,51.90
2023-03-17T17:13:02.973Z,51.91
2023-03-17T17:15:30.503Z,51.66
2023-03-17T17:17:58.119Z,51.73
2023-03-17T17:20:28.659Z,51.88
2023-03-17T17:22:55.473Z,52.32
2023-03-17T17:25:22.044Z,52.79
2023-03-17T17:27:48.516Z,52.77
2023-03-17T17:30:16.598Z,53.56
2023-03-17T17:32:43.211Z,54.01
2023-03-17T17:35:10.348Z,53.50
2023-03-17T17:37:36.809Z,53.76
2023-03-17T17:40:03.877Z,53.77
2023-03-17T17:42:30.614Z,53.95
2023-03-17T17:44:57.354Z,54.35
2023-03-17T17:47:23.853Z,54.27
2023-03-17T17:49:50.530Z,54.49
2023-03-17T17:52:18.146Z,54.63
2023-03-17T17:54:44.878Z,54.48
2023-03-17T17:57:12.514Z,54.82
2023-03-17T17:59:38.945Z,55.77
2023-03-17T18:02:05.635Z,55.35
2023-03-17T18:04:32.153Z,55.52
2023-03-17T18:06:58.615Z,56.03
2023-03-17T18:09:25.108Z,55.93
2023-03-17T18:11:51.550Z,56.04
2023-03-17T18:14:18.035Z,56.04
2023-03-17T18:16:44.521Z,56.03
2023-03-17T18:19:11.592Z,56.78
2023-03-17T18:21:38.076Z,56.47
2023-03-17T18:24:04.866Z,57.45
2023-03-17T18:26:31.804Z,57.09
2023-03-17T18:28:58.593Z,57.31
2023-03-17T18:31:27.844Z,57.24
2023-03-17T18:33:57.173Z,57.93
2023-03-17T18:36:23.835Z,57.93
2023-03-17T18:38:50.870Z,58.03
2023-03-17T18:41:17.794Z,58.06
2023-03-17T18:43:44.988Z,58.56
2023-03-17T18:46:12.896Z,58.69
2023-03-17T18:48:40.127Z,58.76
2023-03-17T18:51:06.951Z,58.97
2023-03-17T18:53:34.671Z,58.62
2023-03-17T18:56:01.724Z,58.71
2023-03-17T18:58:28.801Z,59.06
2023-03-17T19:00:59.749Z,59.29
2023-03-17T19:03:27.458Z,59.25
2023-03-17T19:05:54.521Z,58.68
2023-03-17T19:08:21.423Z,59.12
2023-03-17T19:10:48.303Z,59.35
2023-03-17T19:13:15.250Z,59.70
2023-03-17T19:15:42.212Z,59.46
2023-03-17T19:18:08.704Z,60.08
2023-03-17T19:20:36.341Z,59.99
2023-03-17T19:23:04.698Z,59.90
2023-03-17T19:25:31.621Z,60.13
2023-03-17T19:27:59.117Z,59.96
2023-03-17T19:30:25.754Z,60.31
2023-03-17T19:32:52.180Z,60.58
2023-03-17T19:35:18.732Z,60.94
2023-03-17T19:37:45.236Z,60.77
2023-03-17T19:40:13.334Z,60.55
2023-03-17T19:42:39.927Z,60.83
2023-03-17T19:45:06.671Z,60.98
2023-03-17T19:47:33.098Z,61.16
2023-03-17T19:49:59.606Z,61.40
2023-03-17T19:52:26.159Z,61.30
2023-03-17T19:54:52.771Z,61.26
2023-03-17T19:57:20.913Z,61.56
2023-03-17T19:59:47.474Z,61.52
2023-03-17T20:02:15.104Z,61.70
2023-03-17T20:04:41.566Z,61.70
2023-03-17T20:07:08.453Z,61.99
2023-03-17T20:09:37.822Z,62.22
2023-03-17T20:12:04.998Z,62.13
2023-03-17T20:14:32.045Z,62.26
2023-03-17T20:16:58.553Z,62.10
2023-03-17T20:19:25.231Z,62.31
2023-03-17T20:21:52.554Z,62.44
2023-03-17T20:24:19.196Z,62.56
2023-03-17T20:26:45.899Z,62.82
2023-03-17T20:29:14.435Z,62.98
2023-03-17T20:31:41.998Z,63.29
2023-03-17T20:34:10.088Z,63.25
2023-03-17T20:36:37.483Z,63.29
2023-03-17T20:39:04.686Z,63.23
2023-03-17T20:41:31.362Z,63.25
2023-03-17T20:43:58.952Z,63.47
2023-03-17T20:46:25.859Z,63.44
2023-03-17T20:48:58.529Z,63.74
2023-03-17T20:51:26.206Z,63.98
2023-03-17T20:53:53.539Z,63.88
2023-03-17T20:56:22.288Z,63.86
2023-03-17T20:58:48.961Z,63.99
2023-03-17T21:01:18.235Z,64.33
2023-03-17T21:03:46.241Z,64.93
2023-03-17T21:06:12.863Z,64.78
2023-03-17T21:08:39.365Z,64.80
2023-03-17T21:11:06.785Z,64.62
2023-03-17T21:13:33.554Z,64.63
2023-03-17T21:16:01.476Z,64.70
2023-03-17T21:18:28.681Z,65.19
2023-03-17T21:20:55.607Z,65.15
2023-03-17T21:23:23.165Z,65.03
2023-03-17T21:25:55.276Z,65.19
2023-03-17T21:28:22.760Z,65.01
2023-03-17T21:30:49.921Z,65.50
2023-03-17T21:33:16.420Z,65.51
2023-03-17T21:35:43.238Z,66.14
2023-03-17T21:38:09.847Z,65.53
2023-03-17T21:40:36.420Z,65.58
2023-03-17T21:43:03.037Z,65.76
2023-03-17T21:45:29.572Z,65.90
2023-03-17T21:47:56.842Z,66.04
2023-03-17T21:50:23.349Z,65.98
2023-03-17T21:52:50.017Z,66.34
2023-03-17T21:55:16.582Z,66.41
2023-03-17T21:57:43.245Z,66.41
2023-03-17T22:00:10.496Z,66.46
2023-03-17T22:02:37.196Z,66.27
2023-03-17T22:05:04.436Z,66.64
2023-03-17T22:07:31.637Z,67.22
2023-03-17T22:09:58.324Z,67.09
2023-03-17T22:12:24.798Z,67.42
2023-03-17T22:14:51.370Z,67.28
2023-03-17T22:17:17.805Z,66.97
2023-03-17T22:19:44.309Z,67.48
2023-03-17T22:22:11.315Z,67.45
2023-03-17T22:24:40.985Z,67.38
2023-03-17T22:27:07.519Z,67.08
2023-03-17T22:29:34.040Z,67.40
2023-03-17T22:32:01.391Z,67.08
2023-03-17T22:34:28.070Z,67.33
2023-03-17T22:36:54.519Z,67.29
2023-03-17T22:39:20.996Z,67.41
2023-03-17T22:41:47.451Z,67.37
2023-03-17T22:44:14.217Z,67.67
2023-03-17T22:46:41.360Z,67.96
2023-03-17T22:49:07.887Z,67.64
2023-03-17T22:51:34.624Z,68.31
2023-03-17T22:54:01.208Z,68.12
2023-03-17T22:56:27.685Z,68.12
2023-03-17T22:58:54.472Z,67.75
2023-03-17T23:01:22.537Z,68.09
2023-03-17T23:03:49.397Z,68.67
2023-03-17T23:06:16.196Z,68.99
2023-03-17T23:08:43.284Z,68.55
2023-03-17T23:11:11.678Z,68.61
2023-03-17T23:13:39.809Z,68.84
2023-03-17T23:16:06.561Z,68.86
2023-03-17T23:18:32.995Z,69.12
2023-03-17T23:20:59.555Z,69.03
2023-03-17T23:23:26.036Z,69.00
2023-03-17T23:25:52.678Z,69.06
2023-03-17T23:28:19.520Z,69.10
2023-03-17T23:30:47.350Z,69.17
2023-03-17T23:33:14.461Z,69.12
2023-03-17T23:35:41.007Z,69.63
2023-03-17T23:38:08.720Z,69.30
2023-03-17T23:40:36.072Z,69.63
2023-03-17T23:43:02.520Z,69.96
2023-03-17T23:45:28.996Z,70.10
2023-03-17T23:47:57.387Z,70.22
2023-03-17T23:50:23.862Z,70.06
2023-03-17T23:52:50.356Z,70.02
2023-03-17T23:55:17.445Z,69.83
2023-03-17T23:57:44.879Z,69.56
